createdAt,value
2022-08-23T00:02:27.276Z,68813.09
2022-08-23T00:05:08.817Z,68789.31
2022-08-23T00:07:43.618Z,68809.47
2022-08-23T00:10:14.107Z,68819.53
2022-08-23T00:12:42.756Z,68808.16
2022-08-23T00:15:12.909Z,68807.41
2022-08-23T00:17:42.222Z,68804.94
2022-08-23T00:20:14.377Z,68810.44
2022-08-23T00:22:41.789Z,68807.41
2022-08-23T00:25:12.070Z,68802.66
2022-08-23T00:27:39.511Z,68806.44
2022-08-23T00:30:09.151Z,68806.06
2022-08-23T00:32:38.174Z,68803.06
2022-08-23T00:35:07.054Z,68810.44
2022-08-23T00:37:34.870Z,68806.84
2022-08-23T00:40:02.432Z,68808.38
2022-08-23T00:43:03.480Z,68802.47
2022-08-23T00:46:00.517Z,68792.38
2022-08-23T00:48:28.035Z,68800.19
2022-08-23T00:50:59.996Z,68795.44
2022-08-23T00:53:31.654Z,68794.69
2022-08-23T00:56:03.300Z,68793.16
2022-08-23T00:58:30.858Z,68796.97
2022-08-23T01:01:01.006Z,68792.97
2022-08-23T01:03:38.487Z,68765.41
2022-08-23T01:06:32.553Z,68799.81
2022-08-23T01:09:07.850Z,68798.69
2022-08-23T01:11:41.831Z,68800.19
2022-08-23T01:14:17.132Z,68799.63
2022-08-23T01:17:00.806Z,68804.56
2022-08-23T01:19:38.808Z,68804.56
2022-08-23T01:22:12.195Z,68805.72
2022-08-23T01:25:08.390Z,68794.09
2022-08-23T01:27:29.906Z,68777.38
2022-08-23T01:29:59.449Z,68805.88
2022-08-23T01:32:27.406Z,68810.63
2022-08-23T01:34:54.823Z,68808.16
2022-08-23T01:37:22.169Z,68811.19
2022-08-23T01:39:50.846Z,68802.47
2022-08-23T01:42:18.423Z,68803.41
2022-08-23T01:44:45.927Z,68799.81
2022-08-23T01:47:13.109Z,68799.06
2022-08-23T01:49:40.536Z,68798.69
2022-08-23T01:52:07.822Z,68794.09
2022-08-23T01:54:35.200Z,68798.50
2022-08-23T01:57:02.610Z,68799.63
2022-08-23T01:59:30.003Z,68793.53
2022-08-23T02:01:58.549Z,68797.16
2022-08-23T02:04:25.939Z,68797.91
2022-08-23T02:06:53.731Z,68793.38
2022-08-23T02:09:25.721Z,68790.13
2022-08-23T02:11:56.945Z,68791.06
2022-08-23T02:14:24.567Z,68795.81
2022-08-23T02:17:04.277Z,68808.16
2022-08-23T02:19:34.576Z,68806.06
2022-08-23T02:22:04.194Z,68807.75
2022-08-23T02:24:31.997Z,68792.72
2022-08-23T02:27:01.930Z,68813.44
2022-08-23T02:29:30.491Z,68818.56
2022-08-23T02:32:01.657Z,68815.00
2022-08-23T02:37:14.614Z,68813.44
2022-08-23T02:39:42.682Z,68811.19
2022-08-23T02:42:11.865Z,68816.13
2022-08-23T02:44:42.912Z,68794.41
2022-08-23T02:47:12.024Z,68828.25
2022-08-23T02:49:42.873Z,68808.66
2022-08-23T02:52:10.252Z,68820.84
2022-08-23T02:54:38.134Z,68816.31
2022-08-23T02:57:06.339Z,68792.16
2022-08-23T02:59:34.630Z,68816.13
2022-08-23T03:02:02.102Z,68811.00
2022-08-23T03:04:34.808Z,68820.31
2022-08-23T03:07:02.107Z,68806.06
2022-08-23T03:09:29.517Z,68802.06
2022-08-23T03:11:56.819Z,68802.47
2022-08-23T03:14:25.350Z,68809.31
2022-08-23T03:16:52.697Z,68808.16
2022-08-23T03:19:21.964Z,68802.66
2022-08-23T03:21:49.266Z,68805.50
2022-08-23T03:24:19.268Z,68800.00
2022-08-23T03:26:46.684Z,68805.50
2022-08-23T03:29:16.856Z,68814.41
2022-08-23T03:31:59.299Z,68817.81
2022-08-23T03:34:27.227Z,68819.53
2022-08-23T03:36:56.319Z,68820.09
2022-08-23T03:39:23.842Z,68824.84
2022-08-23T03:41:52.157Z,68819.13
2022-08-23T03:44:19.822Z,68823.50
2022-08-23T03:46:48.323Z,68832.06
2022-08-23T03:49:15.537Z,68800.09
2022-08-23T03:51:52.329Z,68808.34
2022-08-23T03:54:20.709Z,68817.81
2022-08-23T03:57:00.467Z,68823.50
2022-08-23T03:59:32.604Z,68798.97
2022-08-23T04:02:01.221Z,68799.53
2022-08-23T04:04:30.304Z,68828.28
2022-08-23T04:07:21.889Z,68796.72
2022-08-23T04:09:55.275Z,68812.88
2022-08-23T04:12:25.712Z,68818.38
2022-08-23T04:14:53.776Z,68808.50
2022-08-23T04:17:22.609Z,68815.56
2022-08-23T04:19:51.325Z,68813.84
2022-08-23T04:22:20.214Z,68811.19
2022-08-23T04:24:48.362Z,68816.69
2022-08-23T04:27:17.039Z,68818.00
2022-08-23T04:29:45.801Z,68814.03
2022-08-23T04:32:14.771Z,68811.38
2022-08-23T04:34:55.381Z,68812.53
2022-08-23T04:37:23.377Z,68813.66
2022-08-23T04:40:10.144Z,68810.44
2022-08-23T04:42:43.156Z,68818.03
2022-08-23T04:45:12.473Z,68805.88
2022-08-23T04:47:44.878Z,68799.25
2022-08-23T04:50:12.556Z,68800.94
2022-08-23T04:52:59.940Z,68803.22
2022-08-23T04:55:29.757Z,68806.44
2022-08-23T04:58:07.829Z,68803.78
2022-08-23T05:00:44.653Z,68810.25
2022-08-23T05:03:14.893Z,68805.53
2022-08-23T05:05:42.712Z,68808.16
2022-08-23T05:08:11.611Z,68809.31
2022-08-23T05:10:38.888Z,68809.47
2022-08-23T05:13:06.061Z,68816.31
2022-08-23T05:15:33.337Z,68818.78
2022-08-23T05:18:05.780Z,68800.09
2022-08-23T05:20:35.727Z,68822.00
2022-08-23T05:23:03.242Z,68826.75
2022-08-23T05:25:52.531Z,68825.22
2022-08-23T05:28:50.307Z,68806.38
2022-08-23T05:31:24.006Z,68825.38
2022-08-23T05:33:54.316Z,68825.38
2022-08-23T05:36:31.689Z,68826.94
2022-08-23T05:38:58.896Z,68806.94
2022-08-23T05:41:37.812Z,68823.69
2022-08-23T05:44:08.304Z,68825.38
2022-08-23T05:46:36.794Z,68821.03
2022-08-23T05:49:23.688Z,68829.03
2022-08-23T05:51:52.059Z,68834.31
2022-08-23T05:54:21.571Z,68803.53
2022-08-23T05:57:02.712Z,68809.75
2022-08-23T05:59:30.223Z,68824.25
2022-08-23T06:01:57.724Z,68825.38
2022-08-23T06:04:25.396Z,68833.94
2022-08-23T06:06:53.843Z,68835.66
2022-08-23T06:09:21.316Z,68831.28
2022-08-23T06:11:48.935Z,68829.41
2022-08-23T06:14:18.316Z,68824.44
2022-08-23T06:16:51.610Z,68834.50
2022-08-23T06:19:23.910Z,68811.47
2022-08-23T06:22:09.790Z,68809.75
2022-08-23T06:24:41.192Z,68832.78
2022-08-23T06:27:13.669Z,68806.38
2022-08-23T06:29:42.275Z,68832.78
2022-08-23T06:32:28.197Z,68810.34
2022-08-23T06:35:38.344Z,68802.97
2022-08-23T06:38:09.330Z,68833.38
2022-08-23T06:40:48.735Z,68832.78
2022-08-23T06:43:25.716Z,68834.50
2022-08-23T06:46:13.585Z,68834.69
2022-08-23T06:48:43.234Z,68830.72
2022-08-23T06:51:40.959Z,68821.16
2022-08-23T06:54:20.282Z,68829.69
2022-08-23T06:56:58.467Z,68855.38
2022-08-23T06:59:30.077Z,68847.19
2022-08-23T07:02:00.539Z,68837.66
2022-08-23T07:04:46.394Z,68853.44
2022-08-23T07:07:41.193Z,68852.88
2022-08-23T07:10:13.860Z,68849.84
2022-08-23T07:12:42.777Z,68833.66
2022-08-23T07:15:13.969Z,68861.63
2022-08-23T07:17:46.378Z,68860.09
2022-08-23T07:20:14.109Z,68844.47
2022-08-23T07:22:44.585Z,68865.78
2022-08-23T07:25:12.521Z,68850.72
2022-08-23T07:27:40.796Z,68878.88
2022-08-23T07:30:09.742Z,68887.41
2022-08-23T07:32:40.540Z,68888.38
2022-08-23T07:35:40.181Z,68889.84
2022-08-23T07:38:08.168Z,68898.03
2022-08-23T07:40:38.743Z,68896.91
2022-08-23T07:43:06.984Z,68895.94
2022-08-23T07:45:36.574Z,68905.03
2022-08-23T07:48:05.216Z,68907.88
2022-08-23T07:50:40.793Z,68891.69
2022-08-23T07:53:37.310Z,68921.19
2022-08-23T07:56:11.083Z,68892.81
2022-08-23T07:59:01.924Z,68915.28
2022-08-23T08:01:41.498Z,68915.28
2022-08-23T08:04:09.313Z,68918.72
2022-08-23T08:06:46.146Z,68921.72
2022-08-23T08:09:15.690Z,68903.03
2022-08-23T08:11:47.958Z,68911.63
2022-08-23T08:14:19.570Z,68935.06
2022-08-23T08:16:56.338Z,68935.22
2022-08-23T08:19:41.708Z,68940.91
2022-08-23T08:22:27.850Z,68944.75
2022-08-23T08:25:15.289Z,68949.44
2022-08-23T08:27:43.750Z,68940.63
2022-08-23T08:30:11.803Z,68963.50
2022-08-23T08:32:46.952Z,68983.25
2022-08-23T08:35:16.016Z,68966.81
2022-08-23T08:37:44.028Z,68992.34
2022-08-23T08:40:11.498Z,69004.50
2022-08-23T08:42:50.896Z,69001.44
2022-08-23T08:45:27.732Z,69015.50
2022-08-23T08:48:06.311Z,69003.72
2022-08-23T08:50:49.798Z,69021.59
2022-08-23T08:53:25.440Z,69004.94
2022-08-23T08:56:25.184Z,69025.56
2022-08-23T08:59:23.781Z,69006.06
2022-08-23T09:01:51.693Z,69039.44
2022-08-23T09:04:26.846Z,69056.34
2022-08-23T09:07:11.268Z,69034.56
2022-08-23T09:10:05.186Z,69077.44
2022-08-23T09:12:59.594Z,69073.31
2022-08-23T09:15:47.286Z,69086.97
2022-08-23T09:18:17.028Z,69119.59
2022-08-23T09:20:53.423Z,69130.97
2022-08-23T09:23:27.551Z,69119.44
2022-08-23T09:26:03.878Z,69129.13
2022-08-23T09:28:38.960Z,69131.41
2022-08-23T09:31:08.236Z,69134.25
2022-08-23T09:33:42.858Z,69154.78
2022-08-23T09:36:31.521Z,69159.94
2022-08-23T09:39:07.497Z,69182.47
2022-08-23T09:41:41.617Z,69164.47
2022-08-23T09:44:17.023Z,69177.00
2022-08-23T09:47:08.562Z,69184.75
2022-08-23T09:49:54.472Z,69198.44
2022-08-23T09:52:37.752Z,69187.44
2022-08-23T09:55:42.251Z,69179.88
2022-08-23T09:58:36.153Z,69203.00
2022-08-23T10:01:39.281Z,69204.72
2022-08-23T10:04:21.397Z,69190.69
2022-08-23T10:06:49.286Z,69197.53
2022-08-23T10:09:37.078Z,69216.38
2022-08-23T10:12:07.506Z,69238.38
2022-08-23T10:14:35.640Z,69198.69
2022-08-23T10:17:15.388Z,69208.13
2022-08-23T10:19:58.817Z,69197.88
2022-08-23T10:22:28.673Z,69202.25
2022-08-23T10:25:26.741Z,69200.72
2022-08-23T10:28:22.186Z,69191.84
2022-08-23T10:31:34.168Z,69206.09
2022-08-23T10:34:33.321Z,69208.94
2022-08-23T10:37:30.697Z,69242.50
2022-08-23T10:40:17.376Z,69222.06
2022-08-23T10:42:56.974Z,69245.19
2022-08-23T10:45:31.233Z,69233.44
2022-08-23T10:48:21.332Z,69234.03
2022-08-23T10:50:55.781Z,69234.03
2022-08-23T10:53:35.830Z,69235.75
2022-08-23T10:56:06.937Z,69255.28
2022-08-23T10:58:55.096Z,69256.44
2022-08-23T11:01:41.095Z,69245.19
2022-08-23T11:04:23.890Z,69246.56
2022-08-23T11:07:26.878Z,69255.28
2022-08-23T11:10:17.999Z,69238.59
2022-08-23T11:12:54.560Z,69247.75
2022-08-23T11:15:45.101Z,69265.75
2022-08-23T11:18:41.417Z,69266.31
2022-08-23T11:21:18.336Z,69226.63
2022-08-23T11:23:59.111Z,69242.91
2022-08-23T11:26:36.390Z,69241.59
2022-08-23T11:29:06.722Z,69236.66
2022-08-23T11:31:58.762Z,69211.78
2022-08-23T11:35:10.400Z,69236.66
2022-08-23T11:37:53.374Z,69230.53
2022-08-23T11:40:49.650Z,69231.13
2022-08-23T11:43:32.789Z,69236.66
2022-08-23T11:46:26.861Z,69256.44
2022-08-23T11:49:13.724Z,69270.31
2022-08-23T11:51:50.372Z,69256.84
2022-08-23T11:54:42.040Z,69294.09
2022-08-23T11:57:19.828Z,69300.97
2022-08-23T11:59:58.915Z,69311.78
2022-08-23T12:02:38.094Z,69305.69
2022-08-23T12:05:43.076Z,69294.84
2022-08-23T12:08:13.969Z,69288.00
2022-08-23T12:10:41.150Z,69268.25
2022-08-23T12:13:20.642Z,69296.56
2022-08-23T12:16:26.156Z,69283.66
2022-08-23T12:19:01.429Z,69294.50
2022-08-23T12:21:34.490Z,69301.91
2022-08-23T12:24:16.363Z,69316.69
2022-08-23T12:27:13.135Z,69298.50
2022-08-23T12:29:49.510Z,69310.25
2022-08-23T12:32:21.978Z,69309.66
2022-08-23T12:35:10.229Z,69303.63
2022-08-23T12:37:57.913Z,69301.91
2022-08-23T12:40:35.986Z,69331.94
2022-08-23T12:43:11.822Z,69307.03
2022-08-23T12:45:49.729Z,69330.22
2022-08-23T12:48:21.921Z,69326.78
2022-08-23T12:50:59.396Z,69302.47
2022-08-23T12:53:33.381Z,69302.47
2022-08-23T12:56:08.244Z,69326.22
2022-08-23T12:58:38.964Z,69311.03
2022-08-23T13:01:18.136Z,69326.78
2022-08-23T13:03:50.858Z,69300.22
2022-08-23T13:06:30.135Z,69282.53
2022-08-23T13:09:02.667Z,69309.66
2022-08-23T13:11:33.468Z,69280.22
2022-08-23T13:14:01.370Z,69306.81
2022-08-23T13:16:38.204Z,69282.53
2022-08-23T13:19:23.627Z,69289.72
2022-08-23T13:22:37.732Z,69287.44
2022-08-23T13:25:27.432Z,69290.13
2022-08-23T13:27:56.256Z,69275.44
2022-08-23T13:30:29.845Z,69243.72
2022-08-23T13:33:07.645Z,69256.44
2022-08-23T13:35:35.282Z,69267.84
2022-08-23T13:38:08.727Z,69244.31
2022-08-23T13:40:59.880Z,69260.03
2022-08-23T13:43:53.495Z,69246.03
2022-08-23T13:46:26.930Z,69255.72
2022-08-23T13:49:05.439Z,69278.28
2022-08-23T13:51:45.774Z,69278.88
2022-08-23T13:54:15.794Z,69270.31
2022-08-23T13:56:48.305Z,69253.44
2022-08-23T13:59:23.966Z,69255.16
2022-08-23T14:02:01.603Z,69259.72
2022-08-23T14:04:28.947Z,69281.16
2022-08-23T14:06:56.197Z,69284.00
2022-08-23T14:09:23.397Z,69264.81
2022-08-23T14:11:54.541Z,69294.66
2022-08-23T14:14:22.112Z,69283.59
2022-08-23T14:16:49.790Z,69271.13
2022-08-23T14:19:54.688Z,69303.00
2022-08-23T14:22:05.107Z,69281.38
2022-08-23T14:24:32.408Z,69303.59
2022-08-23T14:27:00.768Z,69302.84
2022-08-23T14:29:28.550Z,69280.22
2022-08-23T14:31:57.032Z,69303.97
2022-08-23T14:34:25.490Z,69302.84
2022-08-23T14:39:41.002Z,69283.09
2022-08-23T14:42:09.148Z,69291.06
2022-08-23T14:44:36.599Z,69314.81
2022-08-23T14:47:05.803Z,69309.31
2022-08-23T14:49:33.994Z,69336.91
2022-08-23T14:52:01.801Z,69339.75
2022-08-23T14:54:29.156Z,69342.59
2022-08-23T14:56:57.224Z,69319.59
2022-08-23T14:59:24.624Z,69343.34
2022-08-23T15:01:53.800Z,69346.19
2022-08-23T15:04:24.488Z,69331.00
2022-08-23T15:07:16.637Z,69340.69
2022-08-23T15:09:41.429Z,69366.19
2022-08-23T15:14:57.040Z,69351.34
2022-08-23T15:17:30.287Z,69353.06
2022-08-23T15:19:59.548Z,69337.84
2022-08-23T15:22:26.842Z,69327.00
2022-08-23T15:24:54.164Z,69344.88
2022-08-23T15:27:22.419Z,69350.59
2022-08-23T15:29:49.589Z,69338.78
2022-08-23T15:32:22.228Z,69316.19
2022-08-23T15:34:50.552Z,69317.88
2022-08-23T15:37:18.247Z,69320.16
2022-08-23T15:39:45.279Z,69349.06
2022-08-23T15:42:16.579Z,69318.44
2022-08-23T15:44:47.959Z,69332.50
2022-08-23T15:47:24.445Z,69337.63
2022-08-23T15:49:52.329Z,69338.78
2022-08-23T15:52:20.196Z,69338.78
2022-08-23T15:54:47.680Z,69321.88
2022-08-23T15:57:22.215Z,69329.88
2022-08-23T15:59:49.748Z,69344.13
2022-08-23T16:02:17.262Z,69353.84
2022-08-23T16:04:44.817Z,69360.13
2022-08-23T16:07:15.346Z,69374.19
2022-08-23T16:09:43.730Z,69375.88
2022-08-23T16:12:11.057Z,69368.47
2022-08-23T16:14:38.685Z,69366.19
2022-08-23T16:17:07.703Z,69361.78
2022-08-23T16:19:35.038Z,69335.00
2022-08-23T16:22:02.840Z,69369.63
2022-08-23T16:24:30.104Z,69349.84
2022-08-23T16:26:57.845Z,69348.72
2022-08-23T16:29:25.345Z,69396.28
2022-08-23T16:31:52.766Z,69419.84
2022-08-23T16:34:20.336Z,69404.06
2022-08-23T16:36:53.827Z,69417.16
2022-08-23T16:39:22.979Z,69433.56
2022-08-23T16:41:50.746Z,69409.78
2022-08-23T16:44:17.961Z,69405.22
2022-08-23T16:46:45.272Z,69417.19
2022-08-23T16:49:16.992Z,69438.69
2022-08-23T16:51:44.951Z,69420.03
2022-08-23T16:54:12.612Z,69438.13
2022-08-23T16:56:41.047Z,69403.50
2022-08-23T16:59:10.016Z,69419.84
2022-08-23T17:01:52.688Z,69395.50
2022-08-23T17:04:21.731Z,69415.28
2022-08-23T17:06:48.979Z,69393.78
2022-08-23T17:09:16.819Z,69386.38
2022-08-23T17:11:44.507Z,69409.00
2022-08-23T17:14:12.823Z,69382.94
2022-08-23T17:16:41.710Z,69397.00
2022-08-23T17:19:09.643Z,69397.41
2022-08-23T17:21:37.467Z,69393.41
2022-08-23T17:24:05.519Z,69371.53
2022-08-23T17:26:33.306Z,69381.59
2022-08-23T17:29:01.822Z,69367.91
2022-08-23T17:31:29.257Z,69345.84
2022-08-23T17:34:02.569Z,69345.28
2022-08-23T17:36:42.522Z,69336.13
2022-08-23T17:39:17.488Z,69358.56
2022-08-23T17:41:45.684Z,69335.00
2022-08-23T17:44:13.601Z,69348.47
2022-08-23T17:46:41.908Z,69343.34
2022-08-23T17:49:10.463Z,69324.16
2022-08-23T17:51:38.526Z,69319.00
2022-08-23T17:54:06.245Z,69312.19
2022-08-23T17:56:33.647Z,69307.03
2022-08-23T17:59:00.965Z,69304.19
2022-08-23T18:01:31.274Z,69329.66
2022-08-23T18:03:58.665Z,69323.94
2022-08-23T18:06:27.476Z,69327.38
2022-08-23T18:08:55.542Z,69325.66
2022-08-23T18:11:23.024Z,69315.78
2022-08-23T18:13:50.360Z,69318.66
2022-08-23T18:16:17.799Z,69294.50
2022-08-23T18:18:45.015Z,69308.53
2022-08-23T18:21:13.084Z,69287.66
2022-08-23T18:23:44.842Z,69284.81
2022-08-23T18:26:33.557Z,69316.53
2022-08-23T18:29:01.370Z,69310.81
2022-08-23T18:31:29.264Z,69314.25
2022-08-23T18:34:00.397Z,69286.53
2022-08-23T18:36:29.415Z,69282.53
2022-08-23T18:38:57.780Z,69306.44
2022-08-23T18:41:25.540Z,69309.50
2022-08-23T18:43:53.255Z,69290.28
2022-08-23T18:46:20.823Z,69258.00
2022-08-23T18:48:53.813Z,69259.72
2022-08-23T18:51:22.255Z,69259.72
2022-08-23T18:53:50.214Z,69254.00
2022-08-23T18:56:17.984Z,69275.44
2022-08-23T18:58:45.502Z,69278.28
2022-08-23T19:01:30.199Z,69282.28
2022-08-23T19:04:00.300Z,69296.38
2022-08-23T19:06:28.443Z,69279.66
2022-08-23T19:08:56.905Z,69275.09
2022-08-23T19:11:25.371Z,69269.41
2022-08-23T19:13:53.459Z,69289.72
2022-08-23T19:16:21.970Z,69259.16
2022-08-23T19:18:50.797Z,69255.16
2022-08-23T19:21:21.527Z,69249.44
2022-08-23T19:23:51.935Z,69248.88
2022-08-23T19:26:23.655Z,69267.47
2022-08-23T19:28:52.383Z,69272.59
2022-08-23T19:31:19.782Z,69255.16
2022-08-23T19:33:47.340Z,69253.44
2022-08-23T19:36:35.658Z,69276.03
2022-08-23T19:39:02.598Z,69258.00
2022-08-23T19:41:30.397Z,69260.28
2022-08-23T19:43:58.436Z,69258.56
2022-08-23T19:46:26.060Z,69276.03
2022-08-23T19:48:54.262Z,69271.28
2022-08-23T19:51:21.928Z,69268.44
2022-08-23T19:54:10.840Z,69266.31
2022-08-23T19:56:46.856Z,69238.59
2022-08-23T19:59:28.251Z,69232.31
2022-08-23T20:01:58.069Z,69232.88
2022-08-23T20:04:28.317Z,69266.53
2022-08-23T20:06:58.000Z,69243.13
2022-08-23T20:09:28.749Z,69257.34
2022-08-23T20:11:56.845Z,69240.31
2022-08-23T20:14:28.610Z,69260.03
2022-08-23T22:09:58.890Z,69185.16
2022-08-23T22:12:26.868Z,69175.66
2022-08-23T22:14:56.754Z,69167.50
2022-08-23T22:22:14.540Z,69164.25
2022-08-23T22:25:08.827Z,69160.97
2022-08-23T22:28:01.364Z,69141.69
2022-08-23T22:30:28.821Z,69142.84
2022-08-23T22:32:56.134Z,69176.22
2022-08-23T22:35:28.052Z,69184.75
2022-08-23T22:50:45.509Z,69160.25
2022-08-23T23:15:15.117Z,69153.97
2022-08-23T23:17:58.048Z,69126.84
2022-08-23T23:20:40.308Z,69120.56
2022-08-23T23:39:17.139Z,69106.34
2022-08-23T23:41:45.845Z,69134.00
2022-08-23T23:44:13.279Z,69136.28
2022-08-23T23:46:42.013Z,69137.28
2022-08-23T23:49:10.727Z,69113.19
2022-08-23T23:51:38.279Z,69136.28
2022-08-23T23:54:07.424Z,69144.84
2022-08-23T23:56:34.931Z,69121.16
2022-08-23T23:59:02.132Z,69116.59
